Time;durP1;ratioP1;P1;durP2;ratioP2;P2;SDS_P1;SDS_P2;PMS_P1;PMS_P2;Temp;Humidity;BMP_temperature;BMP_pressure;BME280_temperature;BME280_humidity;BME280_pressure;Samples;Min_cycle;Max_cycle;Signal;HPM_P1;HPM_P2
2023/03/26 00:00:48;;;;;;;13.82;2.88;;;13.40;46.00;;;;;;4962375;28;20050;-44
2023/03/26 00:03:17;;;;;;;11.77;2.40;;;13.40;46.00;;;;;;4963311;28;20050;-43
2023/03/26 00:05:46;;;;;;;11.90;2.15;;;13.40;46.10;;;;;;4961660;28;20418;-45
2023/03/26 00:08:15;;;;;;;19.42;2.92;;;13.40;46.10;;;;;;4963126;28;20054;-47
2023/03/26 00:10:44;;;;;;;6.32;1.60;;;13.40;46.20;;;;;;4962455;28;20062;-43
2023/03/26 00:13:12;;;;;;;14.07;2.33;;;13.40;46.40;;;;;;4961014;28;20411;-45
2023/03/26 00:15:40;;;;;;;14.75;2.95;;;13.40;46.40;;;;;;4960963;28;20483;-47
2023/03/26 00:18:08;;;;;;;15.20;2.40;;;13.40;46.50;;;;;;4962055;28;20053;-44
2023/03/26 00:20:37;;;;;;;17.63;3.03;;;13.40;46.50;;;;;;4960014;28;20415;-43
2023/03/26 00:23:04;;;;;;;18.13;2.65;;;13.40;46.60;;;;;;4958860;28;20074;-46
2023/03/26 00:25:33;;;;;;;19.13;2.72;;;13.40;46.70;;;;;;4962126;28;20069;-45
2023/03/26 00:28:02;;;;;;;33.03;8.13;;;13.40;46.70;;;;;;4960843;28;20054;-45
2023/03/26 00:30:29;;;;;;;20.27;4.60;;;13.40;46.70;;;;;;4960561;28;20059;-48
2023/03/26 00:32:57;;;;;;;14.88;3.00;;;13.40;46.80;;;;;;4962981;28;20058;-45
2023/03/26 00:35:24;;;;;;;18.17;3.42;;;13.40;46.80;;;;;;4961924;28;20055;-42
2023/03/26 00:37:52;;;;;;;22.70;3.03;;;13.40;46.90;;;;;;4960480;28;20047;-43
2023/03/26 00:40:19;;;;;;;12.18;2.47;;;13.40;47.00;;;;;;4962516;28;20062;-44
2023/03/26 00:42:46;;;;;;;17.92;2.95;;;13.40;47.10;;;;;;4956502;28;20062;-44
2023/03/26 00:45:16;;;;;;;11.88;2.80;;;13.40;47.20;;;;;;4961257;28;20058;-46
2023/03/26 00:47:44;;;;;;;11.75;2.95;;;13.40;47.20;;;;;;4962784;28;20054;-44
2023/03/26 00:50:14;;;;;;;17.48;3.25;;;13.40;47.20;;;;;;4963165;28;20058;-47
2023/03/26 00:52:42;;;;;;;15.95;2.80;;;13.40;47.30;;;;;;4958446;28;20066;-45
2023/03/26 00:55:09;;;;;;;15.75;2.85;;;13.50;47.40;;;;;;4961370;28;20059;-45
2023/03/26 00:57:36;;;;;;;13.00;2.65;;;13.40;47.40;;;;;;4959612;28;20882;-49
2023/03/26 01:00:15;;;;;;;16.67;2.30;;;13.40;47.50;;;;;;4960481;28;20426;-48
2023/03/26 01:02:43;;;;;;;13.15;3.05;;;13.40;47.50;;;;;;5014333;23;20077;-46
2023/03/26 01:05:47;;;;;;;13.88;2.55;;;13.40;47.50;;;;;;5000468;28;20064;-45
2023/03/26 01:08:26;;;;;;;14.60;2.40;;;13.40;47.60;;;;;;4997278;28;20049;-51
2023/03/26 01:11:01;;;;;;;11.65;3.03;;;13.50;47.50;;;;;;4999389;28;20057;-49
2023/03/26 01:13:32;;;;;;;15.55;3.13;;;13.50;47.50;;;;;;4996609;28;20481;-44
2023/03/26 01:16:00;;;;;;;16.20;3.25;;;13.50;47.50;;;;;;4998357;28;20497;-46
2023/03/26 01:18:39;;;;;;;9.13;2.13;;;13.40;47.50;;;;;;4997846;28;20045;-44
2023/03/26 01:21:08;;;;;;;12.05;2.45;;;13.40;47.50;;;;;;4994827;28;20629;-46
2023/03/26 01:23:41;;;;;;;9.48;2.15;;;13.40;47.50;;;;;;4994188;28;20159;-44
2023/03/26 01:26:22;;;;;;;9.73;2.33;;;13.40;47.50;;;;;;5000474;28;20063;-45
2023/03/26 01:28:52;;;;;;;7.57;2.05;;;13.40;47.50;;;;;;4999470;28;20049;-46
2023/03/26 01:31:28;;;;;;;20.05;2.80;;;13.40;47.60;;;;;;4997634;28;20050;-44
2023/03/26 01:34:02;;;;;;;10.18;2.05;;;13.30;47.60;;;;;;4997472;28;20065;-45
2023/03/26 01:36:32;;;;;;;;;;;13.30;47.60;;;;;;4998971;28;20053;-45
2023/03/26 01:39:04;;;;;;;11.18;2.60;;;13.30;47.60;;;;;;4999337;28;20410;-47
2023/03/26 01:41:40;;;;;;;8.80;2.72;;;13.40;47.60;;;;;;4998554;28;20049;-46
2023/03/26 01:44:13;;;;;;;15.10;1.90;;;13.30;47.60;;;;;;4996315;28;20394;-45
2023/03/26 01:46:41;;;;;;;15.23;2.58;;;13.30;47.70;;;;;;4999759;28;20614;-46
2023/03/26 01:49:11;;;;;;;12.13;2.03;;;13.30;47.70;;;;;;5000033;28;20053;-44
2023/03/26 01:51:40;;;;;;;14.00;2.15;;;13.20;47.80;;;;;;4998837;28;20053;-46
2023/03/26 01:54:11;;;;;;;11.63;2.00;;;13.20;47.80;;;;;;4994183;28;20069;-45
2023/03/26 01:56:50;;;;;;;8.07;1.95;;;13.20;47.90;;;;;;5000782;28;20428;-46
2023/03/26 01:59:30;;;;;;;11.75;2.20;;;13.20;48.10;;;;;;5003707;28;20057;-47
2023/03/26 02:02:06;;;;;;;10.63;2.25;;;13.20;48.10;;;;;;5011139;28;20060;-44
2023/03/26 02:04:40;;;;;;;9.35;2.20;;;13.20;48.20;;;;;;5008272;28;20421;-45
2023/03/26 02:07:10;;;;;;;;;;;13.10;48.20;;;;;;5012798;28;20061;-44
2023/03/26 02:09:44;;;;;;;10.48;2.35;;;13.20;48.20;;;;;;5005678;28;20491;-46
2023/03/26 02:12:42;;;;;;;12.20;2.22;;;13.20;48.10;;;;;;5007347;28;20057;-46
2023/03/26 02:15:11;;;;;;;11.18;2.20;;;13.10;48.20;;;;;;5000972;28;20065;-46
2023/03/26 02:17:39;;;;;;;17.00;2.55;;;13.10;48.20;;;;;;5004203;28;20046;-46
2023/03/26 02:20:13;;;;;;;9.23;2.15;;;13.10;48.30;;;;;;5002289;28;20057;-45
2023/03/26 02:22:44;;;;;;;13.15;2.55;;;13.00;48.30;;;;;;5005530;28;20072;-47
2023/03/26 02:25:14;;;;;;;15.20;2.70;;;13.00;48.40;;;;;;5004364;28;20060;-45
2023/03/26 02:27:44;;;;;;;11.38;2.20;;;13.00;48.40;;;;;;5012327;28;20061;-44
2023/03/26 02:30:14;;;;;;;11.13;2.47;;;13.00;48.50;;;;;;5005047;28;20378;-46
2023/03/26 02:32:42;;;;;;;18.70;3.08;;;12.90;48.50;;;;;;5004550;28;20509;-46
2023/03/26 02:35:10;;;;;;;12.82;2.13;;;12.90;48.60;;;;;;5006070;28;20058;-45
2023/03/26 02:37:37;;;;;;;12.50;2.25;;;12.90;48.60;;;;;;5008947;28;20069;-47
2023/03/26 02:40:10;;;;;;;13.07;2.78;;;12.90;48.70;;;;;;4997587;28;20046;-48
2023/03/26 02:42:37;;;;;;;10.60;2.75;;;12.90;48.80;;;;;;5011790;28;20069;-45
2023/03/26 02:45:07;;;;;;;13.07;2.58;;;12.90;48.80;;;;;;5008725;28;20054;-45
2023/03/26 02:47:34;;;;;;;12.40;2.33;;;12.80;48.90;;;;;;5013124;28;20389;-46
2023/03/26 02:50:02;;;;;;;10.05;2.40;;;12.80;48.90;;;;;;5005782;28;20046;-45
2023/03/26 02:52:30;;;;;;;11.75;2.58;;;12.80;49.00;;;;;;5005052;28;20460;-47
2023/03/26 02:54:57;;;;;;;11.63;2.72;;;12.80;49.10;;;;;;5003731;28;20064;-48
2023/03/26 02:57:25;;;;;;;20.25;2.58;;;12.80;49.10;;;;;;5005029;28;20413;-45
2023/03/26 02:59:52;;;;;;;8.15;2.05;;;12.80;49.10;;;;;;4999093;28;20129;-44
2023/03/26 03:02:23;;;;;;;9.65;2.13;;;12.80;49.20;;;;;;5005628;28;20073;-45
2023/03/26 03:04:51;;;;;;;14.43;2.95;;;12.70;49.20;;;;;;5015106;28;20068;-44
2023/03/26 03:07:19;;;;;;;13.77;2.40;;;12.80;49.30;;;;;;5009681;28;20053;-45
2023/03/26 03:09:49;;;;;;;15.18;2.53;;;12.80;49.40;;;;;;4999543;28;20409;-45
2023/03/26 03:12:18;;;;;;;13.07;3.45;;;12.70;49.40;;;;;;5001790;28;20387;-47
2023/03/26 03:14:46;;;;;;;12.23;3.00;;;12.70;49.50;;;;;;5014129;28;20056;-46
2023/03/26 03:17:13;;;;;;;11.20;2.70;;;12.70;49.50;;;;;;5008869;28;20049;-45
2023/03/26 03:19:42;;;;;;;15.38;2.95;;;12.80;49.60;;;;;;5001384;28;20513;-47
2023/03/26 03:22:09;;;;;;;16.13;2.72;;;12.70;49.60;;;;;;4998512;28;20532;-49
2023/03/26 03:24:37;;;;;;;11.18;2.80;;;12.70;49.70;;;;;;4994610;28;20061;-44
2023/03/26 03:27:05;;;;;;;14.07;2.63;;;12.70;49.70;;;;;;5002813;28;20061;-46
2023/03/26 03:29:32;;;;;;;10.93;2.47;;;12.70;49.70;;;;;;5003192;28;20057;-45
2023/03/26 03:31:59;;;;;;;11.02;2.70;;;12.70;49.70;;;;;;5000962;28;20664;-46
2023/03/26 03:34:27;;;;;;;8.57;2.15;;;12.70;49.80;;;;;;4998041;28;20701;-46
2023/03/26 03:36:55;;;;;;;12.68;2.45;;;12.70;49.80;;;;;;5008336;28;20057;-46
2023/03/26 03:39:23;;;;;;;13.68;2.75;;;12.80;49.90;;;;;;5009992;28;20053;-45
2023/03/26 03:41:50;;;;;;;13.45;3.40;;;12.70;49.90;;;;;;5007999;28;20061;-44
2023/03/26 03:44:17;;;;;;;17.17;2.58;;;12.70;49.90;;;;;;5014147;28;20054;-49
2023/03/26 03:46:44;;;;;;;13.60;2.38;;;12.70;50.00;;;;;;5013588;28;20057;-49
2023/03/26 03:49:12;;;;;;;12.63;2.40;;;12.70;50.00;;;;;;5012206;28;20502;-48
2023/03/26 03:51:39;;;;;;;6.82;1.95;;;12.80;50.10;;;;;;5001632;28;20390;-47
2023/03/26 03:54:11;;;;;;;10.77;2.22;;;12.70;50.00;;;;;;5002787;28;20061;-46
2023/03/26 03:56:38;;;;;;;18.80;2.70;;;12.70;50.10;;;;;;5001400;28;20079;-47
2023/03/26 03:59:07;;;;;;;10.38;2.05;;;12.70;50.10;;;;;;5005015;28;20405;-45
2023/03/26 04:01:35;;;;;;;8.75;2.53;;;12.80;50.10;;;;;;5001030;28;20387;-45
2023/03/26 04:04:02;;;;;;;6.72;2.03;;;12.70;50.60;;;;;;5009812;28;20438;-44
2023/03/26 04:06:30;;;;;;;11.77;2.13;;;12.70;50.20;;;;;;5001178;28;20188;-44
2023/03/26 04:08:57;;;;;;;10.55;2.53;;;12.70;50.20;;;;;;5006097;28;20064;-47
2023/03/26 04:11:25;;;;;;;8.63;2.33;;;12.80;50.30;;;;;;5011741;28;20053;-45
2023/03/26 04:13:53;;;;;;;15.43;3.33;;;12.70;50.30;;;;;;5007709;28;20053;-45
2023/03/26 04:16:20;;;;;;;10.90;2.38;;;12.80;50.40;;;;;;4999497;28;20508;-45
2023/03/26 04:18:48;;;;;;;8.40;2.17;;;12.70;50.40;;;;;;5002284;28;20050;-46
2023/03/26 04:21:18;;;;;;;8.30;1.65;;;12.70;50.40;;;;;;5002899;28;20045;-46
2023/03/26 04:23:45;;;;;;;8.57;2.13;;;12.80;50.50;;;;;;5003724;28;20054;-45
2023/03/26 04:26:16;;;;;;;7.63;2.10;;;12.70;50.50;;;;;;5003484;28;20482;-45
2023/03/26 04:28:47;;;;;;;7.97;2.35;;;12.80;50.60;;;;;;5003232;28;20159;-45
2023/03/26 04:31:22;;;;;;;13.55;2.60;;;12.70;50.60;;;;;;5001983;28;20041;-44
2023/03/26 04:33:53;;;;;;;8.35;1.90;;;12.80;50.70;;;;;;5006395;28;20053;-45
2023/03/26 04:36:25;;;;;;;9.30;1.90;;;12.70;50.70;;;;;;4999620;28;20390;-45
2023/03/26 04:38:53;;;;;;;8.85;2.50;;;12.70;50.90;;;;;;5005041;28;20436;-46
2023/03/26 04:41:25;;;;;;;11.38;2.20;;;12.70;50.90;;;;;;5008282;28;20046;-51
2023/03/26 04:43:54;;;;;;;12.95;2.42;;;12.70;51.00;;;;;;5004743;28;20057;-45
2023/03/26 04:46:22;;;;;;;13.18;2.20;;;12.80;51.10;;;;;;4999733;28;20057;-46
2023/03/26 04:48:50;;;;;;;8.60;2.05;;;12.70;51.20;;;;;;5009293;28;20058;-45
2023/03/26 04:51:18;;;;;;;9.20;2.60;;;12.70;51.30;;;;;;5001420;28;20061;-50
2023/03/26 04:53:51;;;;;;;10.82;2.47;;;12.70;51.40;;;;;;5005229;28;20066;-47
2023/03/26 04:56:32;;;;;;;20.48;2.63;;;12.70;51.60;;;;;;5003604;28;20819;-45
2023/03/26 04:59:02;;;;;;;13.43;2.35;;;12.70;51.80;;;;;;4991336;28;20057;-52
2023/03/26 05:01:29;;;;;;;35.33;10.85;;;12.70;51.80;;;;;;4993538;28;20061;-45
2023/03/26 05:03:58;;;;;;;51.83;18.10;;;12.70;51.80;;;;;;4994775;28;20058;-46
2023/03/26 05:06:27;;;;;;;21.45;7.55;;;12.60;51.80;;;;;;5002643;28;20417;-49
2023/03/26 05:08:55;;;;;;;15.82;3.25;;;12.60;52.00;;;;;;5000265;28;20486;-46
2023/03/26 05:11:22;;;;;;;10.38;2.22;;;12.60;52.10;;;;;;4995730;28;20397;-47
2023/03/26 05:13:49;;;;;;;14.40;3.33;;;12.60;52.20;;;;;;5000255;28;20064;-47
2023/03/26 05:16:18;;;;;;;10.57;2.70;;;12.60;52.30;;;;;;5001663;28;20053;-47
2023/03/26 05:18:46;;;;;;;12.98;2.38;;;12.50;52.30;;;;;;4997826;28;20061;-45
2023/03/26 05:21:14;;;;;;;14.23;2.30;;;12.50;52.40;;;;;;5004903;28;20490;-47
2023/03/26 05:23:41;;;;;;;10.95;2.38;;;12.50;52.40;;;;;;5006056;28;20066;-45
2023/03/26 05:26:09;;;;;;;12.52;2.20;;;12.50;52.50;;;;;;5002796;28;20527;-45
2023/03/26 05:28:36;;;;;;;63.30;21.20;;;12.50;52.50;;;;;;5000553;28;20050;-47
2023/03/26 05:31:05;;;;;;;66.05;22.23;;;12.50;52.60;;;;;;4999564;28;20054;-47
2023/03/26 05:33:34;;;;;;;20.75;6.28;;;12.50;52.70;;;;;;4996624;28;20506;-48
2023/03/26 05:36:02;;;;;;;11.98;3.67;;;12.40;52.70;;;;;;4999982;28;20050;-47
2023/03/26 05:38:30;;;;;;;6.47;2.08;;;12.40;52.70;;;;;;5007750;28;20058;-47
2023/03/26 05:40:58;;;;;;;11.48;2.20;;;12.40;52.70;;;;;;5003573;28;20046;-46
2023/03/26 05:43:26;;;;;;;8.43;2.28;;;12.40;52.80;;;;;;4994687;28;20058;-45
2023/03/26 05:45:53;;;;;;;12.93;2.33;;;12.40;52.80;;;;;;4994553;28;20485;-45
2023/03/26 05:48:21;;;;;;;8.10;1.80;;;12.40;52.90;;;;;;5000568;28;20060;-47
2023/03/26 05:50:50;;;;;;;19.40;2.47;;;12.40;53.00;;;;;;5005240;28;20076;-47
2023/03/26 05:53:18;;;;;;;11.13;2.40;;;12.40;53.10;;;;;;5006033;28;20053;-47
2023/03/26 05:55:49;;;;;;;16.15;2.58;;;12.40;53.30;;;;;;4996360;28;20549;-47
2023/03/26 05:58:16;;;;;;;12.50;2.63;;;12.40;53.40;;;;;;5003802;28;20378;-44
2023/03/26 06:00:47;;;;;;;15.95;2.60;;;12.30;53.40;;;;;;4999247;28;20085;-46
2023/03/26 06:03:15;;;;;;;77.82;25.67;;;12.30;53.50;;;;;;4999625;28;21050;-48
2023/03/26 06:05:42;;;;;;;30.52;12.20;;;12.30;53.70;;;;;;5001032;28;20062;-45
2023/03/26 06:08:11;;;;;;;15.80;4.22;;;12.30;53.70;;;;;;5005048;28;20058;-46
2023/03/26 06:10:38;;;;;;;12.88;2.85;;;12.30;53.80;;;;;;4999477;28;20149;-46
2023/03/26 06:13:06;;;;;;;7.82;2.47;;;12.30;53.90;;;;;;4997331;28;20058;-47
2023/03/26 06:15:33;;;;;;;13.95;3.05;;;12.30;53.90;;;;;;5000781;28;20054;-45
2023/03/26 06:18:01;;;;;;;11.88;2.45;;;12.20;53.90;;;;;;5007388;28;20053;-47
2023/03/26 06:20:28;;;;;;;8.95;2.10;;;12.20;54.20;;;;;;4998343;28;20125;-46
2023/03/26 06:22:55;;;;;;;12.13;2.40;;;12.20;54.10;;;;;;4997022;28;20057;-47
2023/03/26 06:25:24;;;;;;;9.43;2.10;;;12.30;54.20;;;;;;4996920;28;20391;-48
2023/03/26 06:27:51;;;;;;;10.02;2.38;;;12.20;54.30;;;;;;5283167;23;20162;-50
2023/03/26 06:30:18;;;;;;;10.68;2.80;;;12.20;54.20;;;;;;4965160;28;20480;-49
2023/03/26 06:32:46;;;;;;;8.82;2.40;;;12.20;54.30;;;;;;4964657;28;20046;-49
2023/03/26 06:35:13;;;;;;;11.90;2.83;;;12.30;54.30;;;;;;4964970;28;20046;-50
2023/03/26 06:37:41;;;;;;;13.23;2.83;;;12.20;54.50;;;;;;4963635;28;20062;-48
2023/03/26 06:40:09;;;;;;;12.40;2.50;;;12.20;54.50;;;;;;4963645;28;20055;-48
2023/03/26 06:42:38;;;;;;;8.25;2.03;;;12.20;54.50;;;;;;4965075;28;20043;-48
2023/03/26 06:45:06;;;;;;;9.77;2.03;;;12.20;54.50;;;;;;4969039;28;20047;-50
2023/03/26 06:47:33;;;;;;;8.30;2.20;;;12.20;54.50;;;;;;4967635;28;20061;-50
2023/03/26 06:50:01;;;;;;;8.85;2.42;;;12.20;54.70;;;;;;4966328;28;20042;-51
2023/03/26 06:52:28;;;;;;;9.52;2.22;;;12.20;54.80;;;;;;4967988;28;20061;-47
2023/03/26 06:54:55;;;;;;;9.20;2.20;;;12.20;54.90;;;;;;4965180;28;20054;-49
2023/03/26 06:57:26;;;;;;;14.00;2.42;;;12.20;54.90;;;;;;4964569;28;20066;-47
2023/03/26 06:59:55;;;;;;;13.88;2.58;;;12.20;55.30;;;;;;4965918;28;20055;-50
2023/03/26 07:02:22;;;;;;;12.05;2.47;;;12.20;55.20;;;;;;4966737;28;20635;-51
2023/03/26 07:04:49;;;;;;;9.27;2.20;;;12.20;55.20;;;;;;4966347;28;20070;-49
2023/03/26 07:07:19;;;;;;;8.63;2.13;;;12.20;55.30;;;;;;4965883;28;20054;-50
2023/03/26 07:09:46;;;;;;;7.10;2.00;;;12.20;55.50;;;;;;4968846;28;20422;-50
2023/03/26 07:12:14;;;;;;;13.13;2.88;;;12.20;55.50;;;;;;4965631;28;20406;-48
2023/03/26 07:14:41;;;;;;;13.88;2.20;;;12.20;55.60;;;;;;4966494;28;20069;-50
2023/03/26 07:17:10;;;;;;;13.23;2.70;;;12.20;55.70;;;;;;4966449;28;20061;-50
2023/03/26 07:19:37;;;;;;;8.20;2.47;;;12.20;55.70;;;;;;4964833;28;20062;-51
2023/03/26 07:22:05;;;;;;;10.48;2.35;;;12.20;55.70;;;;;;4966963;28;20501;-51
2023/03/26 07:24:33;;;;;;;8.23;2.03;;;12.20;55.80;;;;;;4965434;28;20062;-50
2023/03/26 07:27:05;;;;;;;9.05;2.13;;;12.20;55.80;;;;;;4965139;28;20429;-48
2023/03/26 07:29:36;;;;;;;8.00;2.00;;;12.30;55.80;;;;;;4966236;28;20462;-48
2023/03/26 07:32:15;;;;;;;12.55;2.20;;;12.30;55.80;;;;;;4964054;28;20062;-46
2023/03/26 07:34:50;;;;;;;12.60;2.42;;;12.30;55.90;;;;;;4966317;28;20054;-48
2023/03/26 07:37:32;;;;;;;11.13;2.90;;;12.30;55.90;;;;;;4964877;28;20403;-50
2023/03/26 07:40:04;;;;;;;8.00;1.95;;;12.30;55.90;;;;;;4967228;28;20494;-46
2023/03/26 07:42:45;;;;;;;7.40;1.98;;;12.30;55.70;;;;;;4964796;28;20043;-50
2023/03/26 07:45:20;;;;;;;8.88;2.30;;;12.40;55.80;;;;;;4965169;28;20058;-48
2023/03/26 07:47:52;;;;;;;7.28;2.03;;;12.30;55.70;;;;;;4967794;28;20118;-47
2023/03/26 07:50:22;;;;;;;11.23;2.40;;;12.40;55.80;;;;;;4966197;28;20061;-48
2023/03/26 07:52:49;;;;;;;8.77;2.42;;;12.40;55.80;;;;;;4966292;28;20061;-47
2023/03/26 07:55:18;;;;;;;8.85;2.10;;;12.40;55.80;;;;;;4965504;28;20414;-48
2023/03/26 07:57:55;;;;;;;5.63;1.77;;;12.40;55.80;;;;;;4965396;28;20585;-49
2023/03/26 08:00:29;;;;;;;8.82;1.83;;;12.40;55.90;;;;;;4967693;28;20047;-51
2023/03/26 08:03:19;;;;;;;12.30;2.35;;;12.40;55.80;;;;;;4965925;28;20047;-49
2023/03/26 08:05:52;;;;;;;9.50;2.45;;;12.40;56.00;;;;;;4964133;28;20050;-47
2023/03/26 08:08:26;;;;;;;8.15;1.95;;;12.40;55.90;;;;;;4966042;28;20512;-49
2023/03/26 08:11:00;;;;;;;;;;;12.40;56.40;;;;;;4965106;28;20055;-49
2023/03/26 08:13:35;;;;;;;26.73;9.98;;;12.40;55.90;;;;;;4966108;28;20271;-50
2023/03/26 08:16:10;;;;;;;10.40;3.50;;;12.50;55.60;;;;;;4967458;28;20066;-50
2023/03/26 08:18:48;;;;;;;11.02;2.85;;;12.40;55.80;;;;;;4963316;28;20066;-48
2023/03/26 08:21:19;;;;;;;10.65;2.45;;;12.40;56.00;;;;;;4964001;28;20800;-50
2023/03/26 08:23:57;;;;;;;12.73;2.25;;;12.40;55.90;;;;;;4965890;28;20062;-48
2023/03/26 08:26:33;;;;;;;10.27;2.08;;;12.30;56.10;;;;;;4963565;28;20050;-50
2023/03/26 08:29:10;;;;;;;9.75;2.20;;;12.30;56.10;;;;;;4967418;28;20118;-49
2023/03/26 08:31:40;;;;;;;6.68;1.55;;;12.40;56.10;;;;;;4966162;28;20490;-50
2023/03/26 08:34:11;;;;;;;5.78;1.60;;;12.30;56.10;;;;;;4966793;28;20058;-49
2023/03/26 08:36:39;;;;;;;7.38;1.75;;;12.30;56.10;;;;;;4966752;28;20070;-48
2023/03/26 08:39:07;;;;;;;6.68;1.85;;;12.30;56.10;;;;;;4969374;28;20077;-50
2023/03/26 08:42:16;;;;;;;5.40;1.40;;;12.30;56.00;;;;;;4965388;28;20074;-51
2023/03/26 08:45:12;;;;;;;7.80;1.90;;;12.30;56.10;;;;;;4962260;28;20063;-51
2023/03/26 08:48:17;;;;;;;4.45;1.23;;;12.30;56.10;;;;;;4966075;28;20089;-48
2023/03/26 08:51:21;;;;;;;4.82;1.25;;;12.20;56.10;;;;;;4967328;28;20057;-50
2023/03/26 08:54:20;;;;;;;4.50;1.13;;;12.20;56.10;;;;;;4966611;28;20414;-49
2023/03/26 08:56:52;;;;;;;3.80;1.20;;;12.20;56.00;;;;;;4963373;28;20490;-52
2023/03/26 08:59:46;;;;;;;5.90;1.38;;;12.20;55.90;;;;;;4966277;28;20413;-50
2023/03/26 09:02:46;;;;;;;4.68;1.40;;;12.20;55.90;;;;;;4966511;28;20513;-52
2023/03/26 09:05:41;;;;;;;7.28;1.98;;;12.20;56.10;;;;;;4967028;28;20095;-50
2023/03/26 09:08:20;;;;;;;;;;;12.20;56.10;;;;;;4968188;28;20063;-51
2023/03/26 09:10:59;;;;;;;5.15;1.27;;;12.20;56.00;;;;;;4964575;28;19926;-48
2023/03/26 09:13:54;;;;;;;5.53;1.02;;;12.20;56.30;;;;;;4966605;28;20135;-51
2023/03/26 09:16:52;;;;;;;5.70;1.15;;;12.20;55.90;;;;;;4966265;28;20526;-50
2023/03/26 09:19:40;;;;;;;7.03;1.75;;;12.20;55.80;;;;;;4964400;28;20050;-50
2023/03/26 09:22:40;;;;;;;3.00;1.08;;;12.20;55.80;;;;;;4965331;28;20261;-48
2023/03/26 09:25:47;;;;;;;89.70;33.30;;;12.20;55.80;;;;;;4967169;28;20055;-51
2023/03/26 09:28:51;;;;;;;33.30;14.02;;;12.20;55.80;;;;;;4964015;28;20517;-49
2023/03/26 09:31:58;;;;;;;11.25;3.40;;;12.20;55.70;;;;;;4932197;28;20061;-50
2023/03/26 09:34:30;;;;;;;4.53;1.80;;;12.20;55.70;;;;;;4964038;28;20113;-50
2023/03/26 09:37:13;;;;;;;3.70;1.30;;;12.20;55.70;;;;;;4964968;28;20124;-49
2023/03/26 09:39:54;;;;;;;3.70;1.33;;;12.20;55.90;;;;;;4964336;28;20081;-52
2023/03/26 09:42:31;;;;;;;2.83;1.27;;;12.20;55.90;;;;;;4963779;28;20061;-49
2023/03/26 09:45:31;;;;;;;4.40;1.30;;;12.20;56.00;;;;;;4963728;28;20387;-46
2023/03/26 09:48:31;;;;;;;4.93;1.40;;;12.10;56.00;;;;;;4965050;28;20058;-49
2023/03/26 09:51:23;;;;;;;6.03;1.30;;;12.10;56.20;;;;;;4960882;28;20053;-51
2023/03/26 09:54:31;;;;;;;4.95;1.30;;;12.10;56.10;;;;;;4963770;28;20055;-50
2023/03/26 09:57:06;;;;;;;2.75;0.98;;;12.10;56.30;;;;;;4964164;28;20426;-49
2023/03/26 09:59:51;;;;;;;5.88;1.40;;;12.20;56.40;;;;;;4964253;28;20059;-50
2023/03/26 10:02:46;;;;;;;4.68;1.30;;;12.20;56.50;;;;;;4964641;28;20137;-48
2023/03/26 10:05:28;;;;;;;6.03;1.23;;;12.20;56.40;;;;;;4964986;28;20069;-50
2023/03/26 10:08:31;;;;;;;2.72;1.00;;;12.20;56.50;;;;;;4965653;28;20373;-49
2023/03/26 10:11:08;;;;;;;6.90;1.60;;;12.20;56.40;;;;;;4963847;28;20081;-48
2023/03/26 10:13:49;;;;;;;4.20;1.00;;;12.20;56.40;;;;;;4964609;28;20053;-51
2023/03/26 10:16:24;;;;;;;3.72;1.25;;;12.20;56.70;;;;;;4969655;28;20051;-51
2023/03/26 10:19:08;;;;;;;4.75;1.08;;;12.20;56.80;;;;;;4969840;28;20054;-48
2023/03/26 10:21:42;;;;;;;2.72;1.13;;;12.30;56.90;;;;;;4969729;28;20059;-49
2023/03/26 10:24:24;;;;;;;;;;;12.30;56.90;;;;;;4969838;28;20515;-51
2023/03/26 10:27:02;;;;;;;4.18;1.40;;;12.30;56.90;;;;;;4963711;28;20021;-49
2023/03/26 10:30:03;;;;;;;4.88;1.20;;;12.40;56.80;;;;;;4968582;28;20050;-49
2023/03/26 10:32:36;;;;;;;4.32;1.23;;;12.40;56.90;;;;;;4965105;28;20046;-50
2023/03/26 10:35:20;;;;;;;4.20;1.17;;;12.40;56.80;;;;;;4968590;28;20125;-49
2023/03/26 10:38:02;;;;;;;4.63;1.33;;;12.40;57.30;;;;;;4968119;28;20046;-51
2023/03/26 10:40:36;;;;;;;4.97;1.00;;;12.50;56.70;;;;;;4968745;28;20522;-50
2023/03/26 10:43:23;;;;;;;3.92;0.98;;;12.50;56.70;;;;;;4967096;28;20046;-50
2023/03/26 10:46:28;;;;;;;3.53;1.17;;;12.50;56.80;;;;;;4968708;28;20392;-51
2023/03/26 10:49:06;;;;;;;;;;;12.50;56.70;;;;;;4907810;29;20060;-49
2023/03/26 10:51:49;;;;;;;6.25;2.45;;;12.60;56.60;;;;;;4959485;28;19930;-51
2023/03/26 10:54:28;;;;;;;3.70;1.30;;;12.60;56.50;;;;;;4968281;28;20514;-50
2023/03/26 10:56:56;;;;;;;4.75;1.38;;;12.60;56.60;;;;;;4966158;28;20062;-51
2023/03/26 10:59:26;;;;;;;5.38;1.35;;;12.60;56.70;;;;;;4969778;28;20414;-51
2023/03/26 11:02:04;;;;;;;3.95;1.30;;;12.60;56.80;;;;;;4967652;28;20529;-50
2023/03/26 11:04:44;;;;;;;6.22;1.17;;;12.60;56.80;;;;;;4966796;28;21118;-52
2023/03/26 11:07:20;;;;;;;2.70;1.05;;;12.60;57.00;;;;;;4968925;28;20070;-49
2023/03/26 11:09:53;;;;;;;3.40;0.95;;;12.60;56.90;;;;;;4966990;28;20070;-48
2023/03/26 11:12:29;;;;;;;5.30;1.17;;;12.70;56.90;;;;;;4965877;28;20059;-52
2023/03/26 11:15:12;;;;;;;3.80;1.00;;;12.70;57.10;;;;;;4965611;28;20062;-49
2023/03/26 11:17:47;;;;;;;2.33;0.85;;;12.70;57.20;;;;;;4965104;28;20502;-49
2023/03/26 11:20:19;;;;;;;2.53;1.10;;;12.70;57.20;;;;;;4967011;28;20058;-50
2023/03/26 11:23:11;;;;;;;2.78;0.82;;;12.80;57.60;;;;;;4962874;28;20054;-47
2023/03/26 11:25:56;;;;;;;5.57;1.13;;;12.80;57.70;;;;;;4966434;28;20042;-51
2023/03/26 11:28:31;;;;;;;;;;;12.90;57.60;;;;;;4967566;28;20061;-51
2023/03/26 11:31:07;;;;;;;2.38;0.85;;;12.90;57.50;;;;;;4966403;28;19922;-49
2023/03/26 11:33:37;;;;;;;5.38;0.95;;;13.00;57.50;;;;;;4963466;28;20077;-48
2023/03/26 11:36:09;;;;;;;3.25;0.98;;;13.00;57.60;;;;;;4966072;28;20050;-49
2023/03/26 11:38:42;;;;;;;2.88;1.10;;;13.00;57.70;;;;;;4965470;28;20418;-50
2023/03/26 11:41:13;;;;;;;5.28;1.10;;;13.00;57.70;;;;;;4965984;28;20062;-51
2023/03/26 11:43:41;;;;;;;3.28;1.00;;;13.10;57.70;;;;;;4965453;28;20065;-49
2023/03/26 11:46:12;;;;;;;2.67;0.90;;;13.20;57.70;;;;;;4965039;28;20054;-49
2023/03/26 11:48:45;;;;;;;3.47;1.00;;;13.10;57.50;;;;;;4966218;28;20073;-50
2023/03/26 11:51:18;;;;;;;2.63;0.80;;;13.20;57.40;;;;;;4965465;28;20050;-49
2023/03/26 11:53:46;;;;;;;1.60;1.00;;;13.20;57.40;;;;;;4967024;28;20054;-47
2023/03/26 11:56:19;;;;;;;5.05;1.10;;;13.20;57.30;;;;;;4966250;28;21010;-49
2023/03/26 11:58:53;;;;;;;3.00;0.90;;;13.20;57.30;;;;;;4965974;28;20050;-49
2023/03/26 12:01:28;;;;;;;1.27;0.57;;;13.30;57.30;;;;;;4966840;28;20498;-51
2023/03/26 12:03:58;;;;;;;2.20;0.70;;;13.20;56.90;;;;;;4965322;28;20050;-51
2023/03/26 12:06:27;;;;;;;1.80;1.02;;;13.20;56.80;;;;;;4965305;28;20054;-51
2023/03/26 12:08:56;;;;;;;2.13;0.90;;;13.30;56.70;;;;;;4964819;28;20062;-50
2023/03/26 12:11:27;;;;;;;1.75;0.88;;;13.20;56.60;;;;;;4964399;28;20058;-51
2023/03/26 12:13:59;;;;;;;2.05;0.88;;;13.20;56.50;;;;;;4965187;28;20062;-49
2023/03/26 12:16:26;;;;;;;2.67;1.08;;;13.20;56.40;;;;;;4966230;28;20054;-51
2023/03/26 12:19:02;;;;;;;1.25;0.57;;;13.10;56.30;;;;;;4965022;28;20431;-51
2023/03/26 12:21:30;;;;;;;2.63;0.60;;;13.10;56.30;;;;;;4965050;28;20058;-50
2023/03/26 12:24:01;;;;;;;2.47;1.63;;;13.10;56.10;;;;;;4965626;28;20059;-51
2023/03/26 12:26:34;;;;;;;3.30;1.90;;;13.00;56.00;;;;;;4965024;28;20054;-53
2023/03/26 12:29:10;;;;;;;6.63;3.60;;;13.00;56.10;;;;;;4965420;28;20047;-48
2023/03/26 12:31:55;;;;;;;4.68;2.30;;;12.90;56.10;;;;;;4965173;28;20062;-49
2023/03/26 12:34:28;;;;;;;2.20;0.98;;;12.90;56.30;;;;;;4964789;28;20054;-49
2023/03/26 12:36:58;;;;;;;3.22;1.20;;;12.90;56.30;;;;;;4964536;28;20487;-51
2023/03/26 12:39:33;;;;;;;3.33;0.60;;;12.80;56.40;;;;;;4964086;28;20081;-50
2023/03/26 12:42:02;;;;;;;1.30;0.90;;;12.90;56.50;;;;;;4963963;28;20058;-50
2023/03/26 12:44:31;;;;;;;3.75;1.20;;;12.80;56.40;;;;;;4965274;28;20050;-50
2023/03/26 12:47:10;;;;;;;2.85;1.98;;;12.80;56.40;;;;;;4965533;28;20173;-51
2023/03/26 12:49:38;;;;;;;1.88;1.23;;;12.80;56.40;;;;;;4965088;28;20059;-48
2023/03/26 12:52:26;;;;;;;1.65;1.10;;;12.80;56.40;;;;;;4965526;28;20058;-53
2023/03/26 12:55:03;;;;;;;1.17;0.50;;;12.80;56.40;;;;;;4965436;28;20065;-48
2023/03/26 12:57:37;;;;;;;1.60;0.60;;;12.80;56.20;;;;;;4963631;28;20058;-51
2023/03/26 13:00:29;;;;;;;0.40;0.30;;;12.70;56.20;;;;;;4964740;28;20062;-49
2023/03/26 13:03:28;;;;;;;0.90;0.30;;;12.70;56.30;;;;;;4964739;28;20050;-50
2023/03/26 13:06:16;;;;;;;17.63;7.03;;;12.70;56.20;;;;;;4966654;28;20438;-57
2023/03/26 13:09:14;;;;;;;3.28;1.85;;;12.70;56.20;;;;;;4966113;28;20061;-51
2023/03/26 13:11:53;;;;;;;0.85;0.77;;;12.70;56.20;;;;;;4959506;28;20058;-54
2023/03/26 13:14:49;;;;;;;1.40;0.70;;;12.70;56.30;;;;;;4964532;28;20051;-50
2023/03/26 13:17:23;;;;;;;0.82;0.57;;;12.70;56.50;;;;;;4964442;28;20051;-50